Weather at Agra Airport

Public forecast

Using degrees Celsius for public forecast. Weather courtesy of forecast.io.

Current aviation weather report (METAR) for Agra Airport

Report is more than 2 hours old.

Retrieved 2020/09/20 17:30 UTC (3 hours ago):

VIAG 201730Z VRB01KT 6000 FEW025 SCT250 30/26 Q1000 NOSIG

Aviation forecast (TAF) for Agra Airport

Retrieved 2020/09/20 18:30 UTC (2 hours ago):

TAF VIAG 201530Z 2018/2106 02005KT 6000 FEW025 SCT250 TEMPO 2100/2102 3000 BR BECMG 2102/2104 5000 HZ